METAR UND TAF INFORMATION

METAR FOR LCPH
ADDS - METARS form results

(0551 UTC 26 June 2022)
Data provider http://aviationweather.gov/metar/data/
 
METAR text: LCPH 260530Z 28005KT 250V320 CAVOK 26/20 Q1008
Conditions at: LCPH (PAPHOS/BAF INTL , CY) observed 0530 UTC 26 June 2022
Temperature: 26.0°C (79°F)
Dewpoint: 20.0°C (68°F) [RH = 70%]
Pressure (altimeter): 29.76 inches Hg (1008.0 mb)
Winds: from the W (280 degrees) at 6 MPH (5 knots; 2.6 m/s)
Visibility: 6 or more miles (10+ km)
Ceiling: ceiling and visibility are OK
Clouds: unknown
Weather: no significant weather observed at this time

METAR text: LCPH 260500Z 30005KT 250V330 CAVOK 25/18 Q1008
Conditions at: LCPH (PAPHOS/BAF INTL , CY) observed 0500 UTC 26 June 2022
Temperature: 25.0°C (77°F)
Dewpoint: 18.0°C (64°F) [RH = 65%]
Pressure (altimeter): 29.76 inches Hg (1008.0 mb)
Winds: from the WNW (300 degrees) at 6 MPH (5 knots; 2.6 m/s)
Visibility: 6 or more miles (10+ km)
Ceiling: ceiling and visibility are OK
Clouds: unknown
Weather: no significant weather observed at this time

Forecast for: LCPH (PAPHOS/BAF INTL , CY)
Text: TAF LCPH 260530Z 2606/2706 02007KT CAVOK
Forecast period: 0600 to 0700 UTC 26 June 2022
Forecast type: FROM: standard forecast or significant change
Winds: from the NNE (20 degrees) at 8 MPH (7 knots; 3.6 m/s)
Visibility: 6 or more miles (10+ km)
Ceiling: unknown
Clouds: missing
Weather: NSW  (no significant weather)
Text: BECMG 2607/2611 29014KT
Forecast period: 0700 to 1700 UTC 26 June 2022
Forecast type: BECOMING: Conditions expected to become as follows by 1100 UTC 26 June 2022
Winds: from the WNW (290 degrees) at 16 MPH (14 knots; 7.2 m/s)
Visibility: 6 or more miles (10+ km)
Ceiling: unknown
Clouds: missing
Weather: NSW  (no significant weather)
Text: BECMG 2617/2621 01007KT
Forecast period: 1700 UTC 26 June 2022 to 0600 UTC 27 June 2022
Forecast type: BECOMING: Conditions expected to become as follows by 2100 UTC 26 June 2022
Winds: from the N (10 degrees) at 8 MPH (7 knots; 3.6 m/s)
Visibility: 6 or more miles (10+ km)
Ceiling: unknown
Clouds: missing
Weather: NSW  (no significant weather)

 FLUGHAFENKARTE

 RUNWAY INFORMATION
Runway 11 Runway length 8858 ft Runway width 148 ft
Runway elevation 41 ft Runway displaced threshold 0 ft Runway heading 110
Runway 29 Runway length 8858 ft Runway width 148 ft
Runway elevation 30 ft Runway displaced threshold 0 ft Runway heading 290

 AIRPORT FREQUENCIES
Type APP Name APP Frequency 120.8 MHZ
Type TWR Name TWR Frequency 119.9 MHZ

 AIRPORT NEAR NAVIGATION AIDS
Type TACAN Name Pafos Frequency 113200 KHZ
Type VOR-DME Name Pafos Frequency 117900 KHZ
Type NDB Name Pafos Frequency 328 KHZ